• Join FlightAware (Why Join?)
  • Login
  • US Flag 
04:56AM EDT


 

Airport Tracker/Info


-or-


 

Live Flight TrackerFlight Track Log ✈ NKS451 ✈ 10-Sep-2013 ✈ KPBG - KFLL

Flight Track Log - Related Links

Times and Time Zones

All times are in EDT time to prevent confusion due to time zone crossing. See the NKS451 flight status page for this flight to view local times or setup timezone preferences in your user account.

Time Position Orientation Groundspeed Altitude Reporting Facility
EDT Latitude Longitude Course Direction KTS MPH feet Rate Location/Type
02:33AM 44.5240 -73.4520 198° South 268 308 5,900  Level FlightAware
02:33AM 44.5020 -73.4630 200° South 271 312 7,000 4,260 Climbing FlightAware
02:33AM 44.4780 -73.4750 200° South 274 315 8,400 3,900 Climbing FlightAware
02:34AM 44.4550 -73.4870 200° South 275 316 9,600 2,700 Climbing FlightAware
02:34AM 44.4110 -73.5080 199° South 308 354 10,900 2,220 Climbing FlightAware
02:35AM 44.3530 -73.5370 200° South 340 391 12,400 2,400 Climbing FlightAware
02:35AM 44.3090 -73.5600 201° Southwest 345 397 13,700 2,820 Climbing FlightAware
02:36AM 44.2440 -73.5880 197° South 356 410 15,700 2,700 Climbing FlightAware
02:37AM 44.1920 -73.5960 186° South 371 427 16,900 2,160 Climbing FlightAware
02:37AM 44.1320 -73.6040 185° South 375 432 18,100 2,040 Climbing FlightAware
02:38AM 44.0690 -73.6140 187° South 391 450 19,300 1,860 Climbing FlightAware
02:38AM 44.0050 -73.6230 186° South 401 461 20,300 1,860 Climbing FlightAware
02:39AM 43.9400 -73.6320 186° South 405 466 21,500 1,740 Climbing FlightAware
02:40AM 43.8710 -73.6420 186° South 418 481 22,400 1,560 Climbing FlightAware
02:40AM 43.8000 -73.6530 186° South 433 498 23,400 1,500 Climbing FlightAware
02:41AM 43.7310 -73.6630 186° South 435 501 24,200 1,440 Climbing FlightAware
02:41AM 43.6550 -73.6740 186° South 439 505 25,100 1,620 Climbing FlightAware
02:42AM 43.5820 -73.6840 186° South 456 525 26,100 1,020 Climbing FlightAware
02:43AM 43.4870 -73.6980 186° South 452 520 26,600 1,380 Climbing FlightAware
02:43AM 43.4120 -73.7090 186° South 469 540 28,000 2,040 Climbing FlightAware
02:44AM 43.3430 -73.7180 185° South 476 548 28,800 1,260 Climbing FlightAware
02:45AM 43.2430 -73.7330 186° South 484 557 29,600 1,140 Climbing FlightAware
02:45AM 43.1760 -73.7420 186° South 489 563 30,200 1,080 Climbing FlightAware
02:46AM 43.0960 -73.7540 186° South 497 572 30,800 900 Climbing FlightAware
02:46AM 43.0170 -73.7650 186° South 504 580 31,300 1,020 Climbing FlightAware
02:47AM 42.9380 -73.7760 186° South 509 586 32,000 1,260 Climbing FlightAware
02:47AM 42.8530 -73.7880 186° South 509 586 32,800 1,380 Climbing FlightAware
02:48AM 42.7710 -73.8010 187° South 504 580 33,700 1,500 Climbing FlightAware
02:49AM 42.6930 -73.8250 193° South 495 570 34,600 1,440 Climbing FlightAware
02:49AM 42.6180 -73.8550 196° South 492 566 35,400 1,320 Climbing FlightAware
02:50AM 42.5350 -73.8880 196° South 489 563 36,200 1,140 Climbing FlightAware
02:50AM 42.4590 -73.9180 196° South 491 565 36,800 1,080 Climbing FlightAware
02:51AM 42.3780 -73.9500 196° South 492 566 37,500 1,020 Climbing FlightAware
02:51AM 42.3060 -73.9780 196° South 491 565 38,000 420 Climbing FlightAware
02:52AM 42.2310 -74.0080 196° South 487 560 38,000  Level FlightAware
02:53AM 42.1500 -74.0400 196° South 488 562 38,000  Level FlightAware
02:53AM 42.0710 -74.0710 196° South 490 564 38,000  Level FlightAware
02:54AM 41.9960 -74.1010 197° South 492 566 38,000  Level FlightAware
02:54AM 41.9210 -74.1300 196° South 494 568 38,000  Level FlightAware
02:55AM 41.8490 -74.1580 196° South 494 568 38,000  Level FlightAware
02:56AM 41.7670 -74.1900 196° South 494 568 38,000  Level FlightAware
02:56AM 41.6850 -74.2210 196° South 494 568 38,000  Level FlightAware
02:57AM 41.6180 -74.2500 198° South 492 566 38,000  Level FlightAware
02:57AM 41.5380 -74.2900 201° Southwest 493 567 38,000  Level FlightAware
02:58AM 41.4640 -74.3260 200° South 496 571 38,000  Level FlightAware
02:59AM 41.3820 -74.3650 200° South 496 571 38,000  Level FlightAware
02:59AM 41.3160 -74.3960 199° South 495 570 38,000  Level FlightAware
03:00AM 41.2370 -74.4330 199° South 495 570 38,000  Level FlightAware
03:00AM 41.1600 -74.4690 199° South 495 570 38,000  Level FlightAware
03:01AM 41.0900 -74.5020 200° South 495 570 38,000  Level FlightAware
03:01AM 41.0080 -74.5410 200° South 494 568 38,000  Level FlightAware
03:02AM 40.9310 -74.5770 199° South 493 567 38,000  Level FlightAware
03:03AM 40.8640 -74.6070 199° South 492 566 38,000  Level FlightAware
03:03AM 40.7910 -74.6410 199° South 490 564 38,000  Level FlightAware
03:04AM 40.7120 -74.6780 200° South 488 562 38,000  Level FlightAware
03:04AM 40.6330 -74.7140 199° South 487 560 38,000  Level FlightAware
03:05AM 40.5600 -74.7480 199° South 487 560 38,000  Level FlightAware
03:05AM 40.4910 -74.7800 199° South 487 560 38,000  Level FlightAware
03:06AM 40.4120 -74.8160 199° South 486 559 38,000  Level FlightAware
03:07AM 40.3370 -74.8500 199° South 484 557 38,000  Level FlightAware
03:07AM 40.2620 -74.8850 200° South 483 556 38,000  Level FlightAware
03:08AM 40.1920 -74.9160 199° South 484 557 38,000  Level FlightAware
03:08AM 40.1180 -74.9500 199° South 484 557 38,000  Level FlightAware
03:09AM 40.0420 -74.9850 199° South 485 558 38,000  Level FlightAware
03:10AM 39.9680 -75.0180 199° South 484 557 38,000  Level FlightAware
03:10AM 39.8990 -75.0490 199° South 485 558 38,000  Level FlightAware
03:11AM 39.8320 -75.0790 199° South 484 557 38,000  Level FlightAware
03:11AM 39.7670 -75.1080 199° South 485 558 38,000  Level FlightAware
03:12AM 39.6670 -75.1530 199° South 484 557 38,000  Level FlightAware
03:13AM 39.5900 -75.1880 199° South 483 556 38,000  Level FlightAware
03:13AM 39.5200 -75.2190 199° South 484 557 38,000  Level FlightAware
03:14AM 39.4430 -75.2530 199° South 486 559 38,000  Level FlightAware
03:14AM 39.3720 -75.2850 199° South 488 562 38,000  Level FlightAware
03:15AM 39.2790 -75.3260 199° South 489 563 38,000  Level FlightAware
03:16AM 39.2050 -75.3580 199° South 488 562 38,000  Level FlightAware
03:16AM 39.1140 -75.3980 199° South 488 562 38,000  Level FlightAware
03:17AM 39.0380 -75.4320 199° South 488 562 38,000  Level FlightAware
03:18AM 38.9610 -75.4660 199° South 488 562 38,000  Level FlightAware
03:18AM 38.8810 -75.5010 199° South 488 562 38,000  Level FlightAware
03:19AM 38.8100 -75.5320 199° South 487 560 38,000  Level FlightAware
03:19AM 38.7390 -75.5630 199° South 487 560 38,000  Level FlightAware
03:20AM 38.6580 -75.5980 199° South 488 562 38,000  Level FlightAware
03:20AM 38.5790 -75.6320 199° South 489 563 38,000  Level FlightAware
03:21AM 38.5180 -75.6580 198° South 491 565 38,000  Level FlightAware
03:21AM 38.4480 -75.6890 199° South 492 566 38,000  Level FlightAware
03:22AM 38.3710 -75.7220 199° South 492 566 38,000  Level FlightAware
03:23AM 38.2930 -75.7550 198° South 490 564 38,000  Level FlightAware
03:23AM 38.2170 -75.7880 199° South 489 563 38,000  Level FlightAware
03:24AM 38.1390 -75.8210 198° South 489 563 38,000  Level FlightAware
03:24AM 38.0730 -75.8490 198° South 488 562 38,000  Level FlightAware
03:25AM 37.9920 -75.8840 199° South 488 562 38,000  Level FlightAware
03:26AM 37.9160 -75.9160 198° South 488 562 38,000  Level FlightAware
03:26AM 37.8440 -75.9470 199° South 487 560 38,000  Level FlightAware
03:27AM 37.7680 -75.9790 198° South 486 559 38,000  Level FlightAware
03:27AM 37.6890 -76.0120 198° South 485 558 38,000  Level FlightAware
03:28AM 37.6260 -76.0390 199° South 485 558 38,000  Level FlightAware
03:29AM 37.5440 -76.0730 198° South 484 557 38,000  Level FlightAware
03:29AM 37.4670 -76.1060 199° South 484 557 38,000  Level FlightAware
03:30AM 37.3900 -76.1380 198° South 484 557 38,000  Level FlightAware
03:30AM 37.3260 -76.1650 199° South 484 557 38,000  Level FlightAware
03:31AM 37.2460 -76.1980 198° South 485 558 38,000  Level FlightAware
03:31AM 37.1730 -76.2280 198° South 485 558 38,000  Level FlightAware
03:32AM 37.1100 -76.2550 199° South 485 558 38,000  Level FlightAware
03:33AM 37.0280 -76.2890 198° South 478 550 38,000  Level FlightAware
03:33AM 36.9610 -76.3160 198° South 478 550 38,000  Level FlightAware
03:34AM 36.8830 -76.3480 198° South 478 550 38,000  Level FlightAware
03:34AM 36.8080 -76.3790 198° South 477 549 38,000  Level FlightAware
03:35AM 36.7440 -76.4050 198° South 475 547 38,000  Level FlightAware
03:36AM 36.6540 -76.4420 198° South 475 547 38,000  Level FlightAware
03:36AM 36.5770 -76.4740 198° South 474 545 38,000  Level FlightAware
03:37AM 36.5120 -76.5000 198° South 475 547 38,000  Level FlightAware
03:37AM 36.4380 -76.5310 199° South 477 549 38,000  Level FlightAware
03:38AM 36.3510 -76.5660 198° South 477 549 38,000  Level FlightAware
03:38AM 36.2780 -76.5960 198° South 478 550 38,000  Level FlightAware
03:39AM 36.2130 -76.6220 198° South 478 550 38,000  Level FlightAware
03:40AM 36.1400 -76.6520 198° South 487 560 38,000  Level FlightAware
03:40AM 36.0520 -76.6870 198° South 487 560 38,000  Level FlightAware
03:41AM 35.9890 -76.7120 198° South 487 560 38,000  Level FlightAware
03:41AM 35.9120 -76.7430 198° South 487 560 38,000  Level FlightAware
03:42AM 35.8730 -76.7590 198° South 488 562 38,000  Level FlightAware
03:43AM 35.7430 -76.8110 198° South 488 562 38,000  Level FlightAware
03:43AM 35.6470 -76.8490 198° South 489 563 38,000  Level FlightAware
03:44AM 35.5810 -76.8760 198° South 489 563 38,000  Level FlightAware
03:45AM 35.5140 -76.9030 198° South 489 563 38,000  Level FlightAware
03:45AM 35.4480 -76.9290 198° South 489 563 38,000  Level FlightAware
03:46AM 35.3820 -76.9550 198° South 489 563 38,000  Level FlightAware
03:46AM 35.3160 -76.9820 198° South 489 563 38,000  Level FlightAware
03:47AM 35.1590 -77.0430 198° South 487 560 38,000  Level FlightAware
03:48AM 35.0830 -77.0720 197° South 486 559 38,000  Level FlightAware
03:48AM 35.0010 -77.1050 198° South 484 557 38,000  Level FlightAware
03:49AM 34.9420 -77.1280 198° South 483 556 38,000  Level FlightAware
03:49AM 34.8590 -77.1600 198° South 482 555 38,000  Level FlightAware
03:50AM 34.7840 -77.1900 198° South 483 556 38,000  Level FlightAware
03:51AM 34.7050 -77.2210 198° South 482 555 38,000  Level FlightAware
03:51AM 34.6250 -77.2520 198° South 484 557 38,000  Level FlightAware
03:52AM 34.5520 -77.2800 198° South 484 557 38,000  Level FlightAware
03:53AM 34.4390 -77.3240 198° South 486 559 38,000  Level FlightAware
03:53AM 34.3730 -77.3490 197° South 485 558 38,000  Level FlightAware
03:54AM 34.2650 -77.3910 198° South 484 557 38,000  Level FlightAware
03:55AM 34.1690 -77.4280 198° South 483 556 38,000  Level FlightAware
03:55AM 34.1100 -77.4510 198° South 483 556 38,000  Level FlightAware
03:56AM 34.0200 -77.4850 197° South 479 551 38,000  Level FlightAware
03:57AM 33.9370 -77.5170 198° South 477 549 38,000  Level FlightAware
03:58AM 33.8260 -77.5590 197° South 473 544 38,000  Level FlightAware
03:58AM 33.7390 -77.5900 197° South 473 544 38,000  Level FlightAware
03:59AM 33.6630 -77.6180 197° South 474 545 38,000  Level FlightAware
04:00AM 33.5830 -77.6460 196° South 474 545 38,000  Level FlightAware
04:00AM 33.5180 -77.6680 196° South 474 545 38,000  Level FlightAware
04:01AM 33.4540 -77.6900 196° South 474 545 38,000  Level FlightAware
04:01AM 33.3890 -77.7120 196° South 474 545 38,000  Level FlightAware
04:02AM 33.3250 -77.7340 196° South 474 545 38,000  Level FlightAware
04:02AM 33.6330 -77.6280 16° North 38,000  Level FlightAware
04:04AM 33.0560 -77.8360 197° South 478 550 38,000  Level FlightAware
04:04AM 32.9720 -77.8660 197° South 478 550 38,000  Level FlightAware
04:05AM 32.9030 -77.8900 196° South 478 550 38,000  Level FlightAware
04:06AM 32.8380 -77.9120 196° South 478 550 38,000  Level FlightAware
04:06AM 32.7330 -77.9510 197° South 481 554 38,000  Level FlightAware
04:07AM 32.6620 -77.9760 197° South 480 552 38,000  Level FlightAware
04:07AM 32.5880 -78.0020 196° South 480 552 38,000  Level FlightAware
04:08AM 32.4740 -78.0420 196° South 479 551 38,000  Level FlightAware
04:09AM 32.4090 -78.0640 196° South 479 551 38,000 -120 Level FlightAware
04:09AM 32.5230 -78.0260 16° North 38,000 -240 Level FlightAware
04:09AM 32.3361 -78.0861 196° South 475 547 37,900 -120 Descending Jacksonville Center
04:10AM 32.2670 -78.1150 196° South 38,000  Climbing FlightAware
04:10AM 32.2086 -78.1344 198° South 475 547 37,900  Descending Jacksonville Center
04:14AM 31.8341 -78.2662 197° South  Level Estimated
04:15AM 31.7155 -78.3074 196° South  Level Estimated
04:16AM 31.5030 -78.3820 198° South 480 552 38,000  Level FlightAware
04:16AM 31.4360 -78.4040 196° South 480 552 38,000  Level FlightAware
04:17AM 31.3700 -78.4260 196° South 480 552 38,000  Level FlightAware
04:18AM 31.3050 -78.4480 196° South 480 552 38,000  Level FlightAware
04:18AM 31.2400 -78.4700 196° South 480 552 38,000  Level FlightAware
04:19AM 31.1720 -78.4920 195° South 480 552 38,000  Level FlightAware
04:19AM 31.1070 -78.5140 196° South 480 552 38,000  Level FlightAware
04:20AM 31.0450 -78.5350 196° South 480 552 38,000  Level FlightAware
04:21AM 30.9620 -78.5630 196° South 480 552 38,000  Level FlightAware
04:21AM 30.8950 -78.5850 196° South 480 552 38,000  Level FlightAware
04:22AM 30.8290 -78.6070 196° South 480 552 38,000  Level FlightAware
04:23AM 30.7620 -78.6300 196° South 480 552 38,000  Level FlightAware
04:23AM 30.6970 -78.6510 196° South 480 552 38,000  Level FlightAware
04:24AM 30.6320 -78.6730 196° South 480 552 38,000  Level FlightAware
04:24AM 30.5660 -78.6950 196° South 480 552 38,000  Level FlightAware
04:25AM 30.5010 -78.7170 196° South 480 552 38,000  Level FlightAware
04:26AM 30.4360 -78.7380 196° South 480 552 38,000  Level FlightAware
04:26AM 30.1708 -78.8353 196° South 491 565 38,000 -120 Level Miami Center
04:27AM 30.0389 -78.8783 196° South 491 565 37,900  Descending Miami Center
04:28AM 29.9153 -78.9239 198° South 480 552 38,000  Climbing Miami Center
04:29AM 29.7894 -78.9717 198° South 480 552 38,000  Level Miami Center
04:30AM 29.6614 -79.0169 197° South 486 559 38,000  Level Miami Center
04:31AM 29.5253 -79.0525 193° South 486 559 38,000  Level Miami Center
04:36AM 28.8620 -79.2670 193° South 479 551 38,000  Level FlightAware
04:37AM 28.7930 -79.2890 196° South 478 550 38,000  Level FlightAware
04:37AM 28.7240 -79.3120 196° South 470 541 38,000  Level FlightAware
04:38AM 28.6410 -79.3390 196° South 478 550 38,000  Level FlightAware
04:39AM 28.5680 -79.3620 195° South 470 541 38,000  Level FlightAware
04:39AM 28.4740 -79.3930 196° South 469 540 38,000  Level FlightAware
04:40AM 28.4100 -79.4140 196° South 468 539 38,000  Level FlightAware
04:40AM 28.3290 -79.4400 196° South 474 545 38,000 -360 Level FlightAware
04:41AM 28.2510 -79.4650 196° South 465 535 37,600 -840 Descending FlightAware
04:42AM 28.1890 -79.4850 196° South 468 539 37,100 -1,020 Descending FlightAware
04:42AM 28.1120 -79.5100 196° South 470 541 36,500 -1,620 Descending FlightAware
04:43AM 28.0290 -79.5360 195° South 483 556 35,100 -2,520 Descending FlightAware
04:43AM 27.9610 -79.5580 196° South 487 560 33,700 -2,700 Descending FlightAware
04:44AM 27.8760 -79.5850 196° South 482 555 32,000 -2,400 Descending FlightAware
04:45AM 27.8100 -79.6060 196° South 485 558 30,900 -2,280 Descending FlightAware
04:45AM 27.7250 -79.6330 196° South 471 542 29,400 -2,340 Descending FlightAware
04:46AM 27.6600 -79.6540 196° South 466 536 28,200 -2,280 Descending FlightAware
04:46AM 27.5850 -79.6780 196° South 467 537 26,900 -2,220 Descending FlightAware
04:47AM 27.5150 -79.7000 196° South 448 516 25,600 -2,280 Descending FlightAware
04:48AM 27.4350 -79.7250 196° South 437 503 24,100 -2,280 Descending FlightAware
04:48AM 27.3770 -79.7440 196° South 436 502 23,000 -2,220 Descending FlightAware
04:49AM 27.3100 -79.7650 196° South 419 482 21,700 -2,340 Descending FlightAware
04:49AM 27.2390 -79.7870 195° South 415 478 20,300 -2,220 Descending FlightAware
04:50AM 27.1710 -79.8090 196° South 406 467 19,000 -2,220 Descending FlightAware
04:50AM 27.1050 -79.8300 196° South 396 456 17,600 -2,220 Descending FlightAware
04:51AM 27.0410 -79.8500 196° South 384 442 16,400 -1,980 Descending FlightAware
04:52AM 26.9920 -79.8650 195° South 375 432 15,400 -1,980 Descending FlightAware
04:52AM 26.9320 -79.8840 196° South 363 418 14,200 -2,040 Descending FlightAware
04:53AM 26.8740 -79.9020 195° South 353 406 13,000 -1,620 Descending FlightAware
04:53AM 26.8200 -79.9190 196° South 324 373 12,300 -1,620 Descending FlightAware
04:54AM 26.7740 -79.9340 196° South 304 350 11,200 -2,280 Descending FlightAware
04:54AM 26.7350 -79.9460 195° South 299 344 10,000 -2,460 Descending FlightAware
04:55AM 26.7080 -79.9550 197° South 300 345 9,200 -2,040 Descending FlightAware
04:55AM 26.6860 -79.9620 196° South 300 345 8,800 -1,380 Descending FlightAware
04:55AM 26.6630 -79.9690 195° South 296 341 8,400 -1,260 Descending FlightAware
04:56AM 26.6340 -79.9780 196° South 289 333 8,000 -840 Descending FlightAware
04:56AM 26.6130 -79.9840 194° South 296 341 7,900 -180 Descending FlightAware
04:56AM 26.5850 -79.9930 196° South 296 341 7,900 120 Level FlightAware
04:57AM 26.5590 -80.0010 195° South 295 339 8,000 120 Climbing FlightAware
04:57AM 26.5270 -80.0110 196° South 296 341 8,000 -180 Level FlightAware
04:57AM 26.5120 -80.0160 197° South 298 343 7,900 -360 Descending FlightAware
04:57AM 26.5040 -80.0190 199° South 299 344 7,900 360 Level FlightAware
04:57AM 26.4910 -80.0270 209° Southwest 298 343 8,000 180 Climbing FlightAware
04:58AM 26.4700 -80.0440 216° Southwest 296 341 8,000 -180 Level FlightAware
04:58AM 26.4470 -80.0620 215° Southwest 293 337 7,900 -1,020 Descending FlightAware
04:58AM 26.4300 -80.0760 216° Southwest 286 329 7,400 -2,280 Descending FlightAware
04:59AM 26.4090 -80.0930 216° Southwest 288 331 6,600 -2,580 Descending FlightAware
04:59AM 26.3870 -80.1110 216° Southwest 287 330 5,700 -2,520 Descending FlightAware
04:59AM 26.3650 -80.1290 216° Southwest 287 330 4,900 -2,340 Descending FlightAware
05:00AM 26.3390 -80.1500 216° Southwest 284 327 4,000 -2,340 Descending FlightAware
05:00AM 26.3300 -80.1580 219° Southwest 283 326 3,600 -1,740 Descending FlightAware
05:00AM 26.3070 -80.1770 217° Southwest 274 315 3,100 -960 Descending FlightAware
05:01AM 26.2830 -80.1970 217° Southwest 257 296 2,900 -240 Descending FlightAware
05:01AM 26.2580 -80.2180 217° Southwest 238 274 2,900 -420 Level FlightAware
05:02AM 26.2430 -80.2310 218° Southwest 229 264 2,600 -1,140 Descending FlightAware
05:02AM 26.2270 -80.2450 218° Southwest 229 264 2,200 -1,080 Descending FlightAware
05:02AM 26.2080 -80.2590 213° Southwest 222 255 1,900 -780 Descending FlightAware
05:02AM 26.1980 -80.2630 200° South 211 243 1,800 -180 Descending FlightAware
05:03AM 26.1640 -80.2620 178° South 196 226 1,800 -300 Level FlightAware
05:03AM 26.1410 -80.2580 171° South 180 207 1,500 -420 Descending FlightAware
05:04AM 26.1280 -80.2560 172° South 182 209 1,500  Level FlightAware
05:04AM 26.1110 -80.2520 168° South 184 212 1,500 -180 Level FlightAware
05:04AM 26.0930 -80.2450 161° South 176 203 1,400 -360 Descending FlightAware
05:05AM 26.0840 -80.2370 141° Southeast 146 168 1,300 -720 Descending FlightAware
05:05AM 26.0790 -80.2260 117° Southeast 130 150 1,000 -900 Descending FlightAware
05:05AM 26.0770 -80.2160 103° East 124 143 800 -540 Descending FlightAware
05:06AM 26.0770 -80.1990 90° East 121 139 600 -600 Descending FlightAware
05:06AM 26.0770 -80.1840 90° East 121 139 300 -660 Descending FlightAware
05:06AM 26.0770 -80.1690 90° East 125 144 100 -300 Descending FlightAware
05:07AM 26.0770 -80.1530 90° East 125 144 100  Level FlightAware
05:14AM 26.0667 -80.1500 103° East  Level FlightAware Approximate
05:15AM 26.0726 -80.1527 103° East  Level Estimated